Airfield :
LOGIN :

Register | Disclaimer

   EN    FR    IT 

 










Legend :    VFR   Marginal VFR   IFR   Intensive IFR   Very Intensive IFR
Visi :
Ceiling :
>= 8 km
>= 3000ft
5 to 8 km
1000 to 3000 ft
1500m to 5 km
500 to 1000 ft
800 to 1500m
200 to 500 ft
< 800m
< 200 ft
Symbols :   Thunderstorms  Fog  Heavy snow  Heavy precipitations  Wind > 20 kt
SIGMETs :     Misc.  Thunderstorms  Icing  Turbulence  Mountain Waves  Volcanic Ashes






- Airport Elevation : 302 ft
- IATA code : MAH


LEMH - Menorca

CURRENT METAR :
  • 041000Z 36007KT 310V030 9999 FEW019 17/07 Q1020

EXPIRED METARs :
  • 040930Z 01007KT 300V050 9999 FEW019 16/08 Q1020
  • 040900Z 01009KT 320V040 CAVOK 15/07 Q1020
  • 040830Z 01009KT 330V040 CAVOK 15/08 Q1020
  • 040800Z 36008KT 320V020 9999 FEW007 14/08 Q1020
  • 040730Z 34004KT 290V020 CAVOK 14/10 Q1019

TAF TAF LEMH
Valid from the 04 at 09:00 until the 05 at 09:00 UTC


040800Z 0409/0509 04009KT 9999 FEW020 TX18/0412Z TN09/0506Z



MET'MAP, your aeronautical weather chart ! - Copyright ORBIFLY December 2007 - Disclaimer

ORBIFLY MET'MAP TEAM :

Programming & Development : Alexandra Zaïnal
Concept & original design : Baudouin d'Aumeries
Assistance for programming : Marc-Olivier Méhu
Technical & hardware support : Manuel Goepfert

Contact : metmap@orbifly.com




SOURCES & CREDITS :

   NOAA